createdAt,value
2019-03-08T00:02:08.846Z,2.70
2019-03-08T00:04:37.575Z,2.42
2019-03-08T00:07:06.295Z,2.92
2019-03-08T00:09:35.033Z,2.58
2019-03-08T00:12:03.793Z,2.85
2019-03-08T00:14:32.537Z,4.87
2019-03-08T00:17:02.317Z,3.02
2019-03-08T00:19:31.003Z,3.00
2019-03-08T00:22:02.623Z,4.00
2019-03-08T00:24:31.370Z,3.33
2019-03-08T00:27:00.331Z,2.87
2019-03-08T00:29:29.058Z,1.82
2019-03-08T00:31:57.790Z,3.80
2019-03-08T00:34:26.555Z,2.27
2019-03-08T00:36:55.281Z,3.08
2019-03-08T00:39:23.919Z,2.33
2019-03-08T00:41:53.073Z,4.75
2019-03-08T00:44:21.767Z,2.87
2019-03-08T00:46:50.535Z,3.22
2019-03-08T00:49:19.249Z,2.95
2019-03-08T00:51:48.018Z,3.08
2019-03-08T00:54:16.727Z,6.40
2019-03-08T00:56:45.668Z,4.25
2019-03-08T00:59:14.374Z,1.90
2019-03-08T01:01:43.164Z,4.50
2019-03-08T01:04:11.815Z,2.90
2019-03-08T01:06:40.559Z,4.08
2019-03-08T01:09:09.278Z,4.22
2019-03-08T01:11:40.789Z,2.80
2019-03-08T01:14:09.530Z,6.47
2019-03-08T01:16:38.270Z,2.40
2019-03-08T01:19:06.985Z,2.50
2019-03-08T01:21:35.682Z,2.47
2019-03-08T01:24:04.487Z,2.20
2019-03-08T01:26:33.212Z,2.87
2019-03-08T01:29:01.960Z,3.75
2019-03-08T01:31:30.683Z,3.65
2019-03-08T01:33:59.456Z,1.82
2019-03-08T01:36:28.176Z,2.45
2019-03-08T01:38:56.977Z,2.45
2019-03-08T01:41:25.755Z,5.10
2019-03-08T01:43:54.510Z,1.72
2019-03-08T01:46:23.165Z,2.05
2019-03-08T01:48:51.882Z,5.00
2019-03-08T01:51:20.570Z,2.02
2019-03-08T01:53:52.029Z,2.00
2019-03-08T01:56:20.781Z,1.90
2019-03-08T01:58:49.566Z,2.90
2019-03-08T02:01:18.278Z,4.15
2019-03-08T02:03:47.046Z,1.00
2019-03-08T02:06:16.114Z,1.25
2019-03-08T02:08:45.040Z,2.25
2019-03-08T02:11:13.875Z,2.87
2019-03-08T02:13:42.699Z,0.88
2019-03-08T02:16:11.389Z,2.15
2019-03-08T02:18:41.231Z,2.08
2019-03-08T02:21:11.462Z,3.45
2019-03-08T02:23:40.174Z,1.75
2019-03-08T02:26:09.026Z,3.12
2019-03-08T02:28:37.781Z,1.50
2019-03-08T02:31:06.542Z,3.27
2019-03-08T02:33:37.367Z,0.82
2019-03-08T02:36:06.126Z,1.15
2019-03-08T02:38:34.885Z,0.93
2019-03-08T02:41:03.663Z,0.60
2019-03-08T02:43:32.394Z,0.75
2019-03-08T02:46:01.059Z,0.88
2019-03-08T02:48:29.993Z,0.80
2019-03-08T02:50:58.912Z,1.82
2019-03-08T02:53:27.654Z,0.87
2019-03-08T02:55:56.330Z,1.45
2019-03-08T02:58:25.086Z,1.45
2019-03-08T03:00:53.817Z,1.95
2019-03-08T03:03:22.538Z,1.27
2019-03-08T03:05:51.507Z,1.40
2019-03-08T03:08:20.288Z,1.90
2019-03-08T03:10:49.017Z,1.45
2019-03-08T03:13:17.736Z,2.75
2019-03-08T03:15:46.489Z,2.05
2019-03-08T03:18:15.306Z,1.22
2019-03-08T03:20:43.952Z,1.40
2019-03-08T03:23:14.273Z,1.10
2019-03-08T03:25:42.944Z,1.52
2019-03-08T03:28:12.796Z,1.80
2019-03-08T03:30:41.507Z,1.27
2019-03-08T03:33:10.224Z,2.27
2019-03-08T03:35:38.975Z,1.17
2019-03-08T03:38:07.774Z,1.17
2019-03-08T03:40:36.472Z,1.30
2019-03-08T03:43:05.217Z,2.20
2019-03-08T03:45:33.959Z,2.08
2019-03-08T03:48:03.145Z,1.20
2019-03-08T03:50:31.878Z,1.50
2019-03-08T03:53:00.581Z,1.52
2019-03-08T03:55:29.228Z,1.90
2019-03-08T03:57:57.966Z,1.20
2019-03-08T04:00:26.740Z,2.10
2019-03-08T04:02:56.074Z,1.00
2019-03-08T04:05:24.814Z,1.77
2019-03-08T04:07:55.106Z,1.37
2019-03-08T04:10:23.899Z,1.27
2019-03-08T04:12:52.654Z,1.47
2019-03-08T04:15:21.436Z,2.05
2019-03-08T04:17:52.880Z,0.80
2019-03-08T04:20:21.595Z,2.35
2019-03-08T04:22:50.252Z,2.17
2019-03-08T04:25:19.950Z,1.12
2019-03-08T04:27:48.687Z,1.02
2019-03-08T04:30:17.454Z,2.10
2019-03-08T04:32:46.584Z,0.82
2019-03-08T04:35:15.314Z,1.75
2019-03-08T04:37:45.448Z,0.62
2019-03-08T04:40:14.261Z,1.70
2019-03-08T04:42:43.036Z,2.35
2019-03-08T04:45:12.078Z,1.35
2019-03-08T04:47:40.732Z,5.22
2019-03-08T04:50:10.118Z,2.97
2019-03-08T04:52:38.864Z,1.30
2019-03-08T04:55:08.663Z,2.47
2019-03-08T04:57:37.378Z,1.00
2019-03-08T05:00:06.414Z,1.90
2019-03-08T05:02:35.186Z,1.47
2019-03-08T05:05:04.324Z,3.33
2019-03-08T05:07:33.050Z,1.02
2019-03-08T05:10:01.753Z,1.07
2019-03-08T05:12:31.122Z,1.07
2019-03-08T05:15:01.163Z,1.42
2019-03-08T05:17:32.061Z,1.43
2019-03-08T05:20:01.751Z,1.25
2019-03-08T05:22:30.489Z,2.77
2019-03-08T05:24:59.242Z,1.32
2019-03-08T05:27:27.973Z,1.37
2019-03-08T05:29:56.714Z,0.90
2019-03-08T05:32:25.450Z,2.10
2019-03-08T05:34:54.203Z,1.17
2019-03-08T05:37:23.008Z,1.55
2019-03-08T05:39:51.708Z,1.20
2019-03-08T05:42:20.416Z,0.90
2019-03-08T05:44:49.152Z,0.88
2019-03-08T05:47:19.023Z,3.50
2019-03-08T05:49:47.763Z,2.27
2019-03-08T05:52:16.400Z,0.53
2019-03-08T05:54:45.167Z,1.70
2019-03-08T05:57:13.993Z,2.53
2019-03-08T05:59:42.741Z,1.95
2019-03-08T06:02:11.774Z,2.95
2019-03-08T06:04:40.517Z,1.32
2019-03-08T06:07:09.269Z,1.52
2019-03-08T06:09:38.047Z,1.72
2019-03-08T06:12:06.784Z,2.25
2019-03-08T06:14:35.542Z,3.05
2019-03-08T06:17:04.291Z,3.00
2019-03-08T06:19:33.023Z,2.62
2019-03-08T06:22:01.808Z,3.80
2019-03-08T06:24:30.692Z,3.75
2019-03-08T06:26:59.543Z,6.13
2019-03-08T06:29:28.502Z,5.03
2019-03-08T06:31:57.229Z,5.42
2019-03-08T06:34:25.970Z,7.50
2019-03-08T06:36:54.842Z,5.53
2019-03-08T06:39:23.584Z,6.70
2019-03-08T06:41:52.323Z,5.97
2019-03-08T06:44:21.335Z,7.05
2019-03-08T06:46:50.126Z,4.37
2019-03-08T06:49:18.851Z,6.37
2019-03-08T06:51:47.703Z,8.90
2019-03-08T06:54:17.527Z,7.75
2019-03-08T06:56:46.218Z,7.50
2019-03-08T06:59:34.174Z,3.35
2019-03-08T07:02:02.920Z,5.85
2019-03-08T07:04:31.634Z,5.35
2019-03-08T07:07:01.432Z,10.75
2019-03-08T07:09:30.404Z,7.05
2019-03-08T07:11:59.139Z,9.80
2019-03-08T07:14:27.873Z,9.60
2019-03-08T07:16:57.588Z,9.13
2019-03-08T07:19:29.212Z,12.30
2019-03-08T07:22:02.677Z,9.35
2019-03-08T07:24:49.084Z,10.23
2019-03-08T07:27:31.891Z,10.90
2019-03-08T07:30:28.755Z,10.93
2019-03-08T07:33:31.880Z,9.50
2019-03-08T07:36:12.631Z,9.48
2019-03-08T07:38:59.136Z,10.17
2019-03-08T07:41:35.763Z,12.33
2019-03-08T07:44:33.249Z,12.15
2019-03-08T07:47:07.974Z,12.90
2019-03-08T07:49:54.963Z,16.12
2019-03-08T07:52:33.494Z,16.23
2019-03-08T07:55:14.086Z,13.83
2019-03-08T07:58:00.882Z,9.50
2019-03-08T08:00:48.683Z,18.20
2019-03-08T08:03:42.119Z,16.63
2019-03-08T08:06:27.996Z,12.65
2019-03-08T08:09:15.830Z,16.67
2019-03-08T08:11:54.794Z,13.10
2019-03-08T08:14:46.744Z,13.43
2019-03-08T08:17:37.747Z,10.60
2019-03-08T08:20:27.636Z,14.30
2019-03-08T08:23:18.445Z,16.20
2019-03-08T08:26:06.311Z,14.33
2019-03-08T08:29:12.485Z,14.03
2019-03-08T08:32:00.455Z,9.03
2019-03-08T08:35:05.009Z,9.75
2019-03-08T08:37:42.488Z,13.83
2019-03-08T08:40:36.111Z,11.83
2019-03-08T08:43:23.874Z,12.68
2019-03-08T08:46:14.580Z,14.10
2019-03-08T08:49:02.678Z,13.70
2019-03-08T08:52:02.715Z,8.43
2019-03-08T08:54:53.579Z,10.17
2019-03-08T08:57:53.287Z,15.60
2019-03-08T09:00:31.546Z,10.47
2019-03-08T09:03:19.322Z,15.13
2019-03-08T09:05:56.446Z,12.47
2019-03-08T09:08:43.274Z,14.47
2019-03-08T09:11:43.812Z,13.00
2019-03-08T09:14:26.956Z,17.12
2019-03-08T09:17:13.083Z,12.28
2019-03-08T09:20:08.904Z,10.67
2019-03-08T09:22:47.442Z,13.00
2019-03-08T09:25:44.013Z,15.13
2019-03-08T09:28:22.568Z,13.00
2019-03-08T09:31:08.944Z,11.18
2019-03-08T09:33:46.714Z,11.18
2019-03-08T09:36:33.062Z,10.50
2019-03-08T09:39:11.300Z,13.13
2019-03-08T09:41:55.338Z,10.50
2019-03-08T09:44:42.359Z,13.00
2019-03-08T09:47:16.285Z,10.78
2019-03-08T09:50:02.966Z,10.32
2019-03-08T09:52:52.006Z,10.48
2019-03-08T09:55:52.150Z,8.83
2019-03-08T09:58:58.035Z,15.00
2019-03-08T10:01:44.781Z,10.30
2019-03-08T10:04:25.729Z,13.72
2019-03-08T10:07:15.954Z,12.88
2019-03-08T10:10:06.604Z,10.48
2019-03-08T10:12:54.539Z,16.30
2019-03-08T10:15:35.207Z,14.58
2019-03-08T10:18:13.656Z,10.53
2019-03-08T10:21:21.711Z,10.88
2019-03-08T10:24:09.377Z,6.50
2019-03-08T10:26:56.047Z,10.90
2019-03-08T10:29:46.634Z,9.35
2019-03-08T10:32:37.595Z,14.40
2019-03-08T10:35:34.073Z,8.73
2019-03-08T10:38:10.158Z,12.35
2019-03-08T10:40:56.452Z,10.30
2019-03-08T10:43:29.677Z,12.85
2019-03-08T10:46:20.488Z,7.58
2019-03-08T10:49:07.924Z,13.00
2019-03-08T10:51:53.044Z,9.83
2019-03-08T10:54:34.116Z,11.40
2019-03-08T10:57:15.861Z,12.75
2019-03-08T10:59:52.930Z,13.50
2019-03-08T11:02:39.551Z,13.78
2019-03-08T11:05:24.175Z,14.13
2019-03-08T11:08:29.340Z,10.58
2019-03-08T11:11:08.688Z,13.03
2019-03-08T11:14:02.645Z,11.78
2019-03-08T11:16:50.448Z,14.13
2019-03-08T11:19:31.320Z,9.73
2019-03-08T11:22:37.143Z,11.55
2019-03-08T11:25:24.979Z,8.15
2019-03-08T11:28:20.993Z,9.93
2019-03-08T11:31:08.446Z,9.67
2019-03-08T11:33:58.937Z,6.80
2019-03-08T11:36:36.878Z,11.18
2019-03-08T11:39:30.160Z,11.30
2019-03-08T11:42:10.484Z,11.35
2019-03-08T11:45:04.093Z,8.57
2019-03-08T11:48:02.060Z,11.43
2019-03-08T11:50:37.501Z,12.75
2019-03-08T11:53:18.156Z,10.30
2019-03-08T11:56:06.016Z,12.93
2019-03-08T11:58:57.149Z,9.50
2019-03-08T12:01:44.051Z,14.53
2019-03-08T12:04:32.998Z,12.70
2019-03-08T12:07:10.850Z,11.12
2019-03-08T12:10:16.984Z,9.65
2019-03-08T12:13:07.352Z,14.95
2019-03-08T12:15:45.835Z,14.00
2019-03-08T12:18:23.937Z,9.85
2019-03-08T12:21:10.457Z,9.33
2019-03-08T12:23:56.829Z,11.75
2019-03-08T12:26:57.023Z,7.70
2019-03-08T12:29:50.764Z,16.62
2019-03-08T12:32:34.086Z,14.23
2019-03-08T12:35:30.958Z,9.28
2019-03-08T12:38:26.955Z,11.22
2019-03-08T12:41:08.104Z,11.05
2019-03-08T12:44:04.900Z,8.65
2019-03-08T12:46:58.901Z,11.03
2019-03-08T12:50:06.050Z,10.25
2019-03-08T12:52:59.576Z,8.90
2019-03-08T12:55:36.673Z,10.15
2019-03-08T12:58:33.636Z,9.20
2019-03-08T13:01:15.256Z,14.13
2019-03-08T13:03:55.127Z,9.18
2019-03-08T13:06:45.824Z,9.28
2019-03-08T13:09:36.621Z,10.03
2019-03-08T13:12:05.324Z,11.30
2019-03-08T13:14:34.363Z,11.50
2019-03-08T13:17:03.235Z,7.03
2019-03-08T13:19:31.949Z,8.90
2019-03-08T13:22:00.728Z,8.38
2019-03-08T13:24:29.499Z,7.17
2019-03-08T13:26:58.385Z,7.28
2019-03-08T13:29:27.196Z,6.72
2019-03-08T13:31:56.057Z,11.05
2019-03-08T13:34:24.824Z,6.45
2019-03-08T13:36:53.593Z,6.80
2019-03-08T13:39:22.444Z,8.00
2019-03-08T13:41:51.277Z,9.10
2019-03-08T13:44:20.152Z,7.72
2019-03-08T13:46:51.923Z,9.63
2019-03-08T13:49:21.136Z,7.10
2019-03-08T13:51:49.892Z,7.78
2019-03-08T13:54:18.670Z,9.83
2019-03-08T13:56:47.351Z,8.65
2019-03-08T13:59:16.114Z,6.10
2019-03-08T14:01:44.774Z,8.30
2019-03-08T14:04:13.823Z,5.62
2019-03-08T14:06:42.644Z,12.33
2019-03-08T14:09:12.449Z,4.12
2019-03-08T14:11:41.248Z,5.95
2019-03-08T14:14:10.112Z,7.25
2019-03-08T14:16:38.935Z,9.43
2019-03-08T14:19:07.714Z,8.48
2019-03-08T14:21:36.472Z,8.23
2019-03-08T14:24:05.243Z,11.18
2019-03-08T14:26:35.047Z,12.07
2019-03-08T14:29:05.880Z,6.30
2019-03-08T14:31:49.298Z,9.65
2019-03-08T14:34:17.081Z,8.28
2019-03-08T14:36:46.477Z,11.08
2019-03-08T14:39:15.338Z,11.28
2019-03-08T14:42:04.087Z,6.22
2019-03-08T14:45:07.688Z,9.00
2019-03-08T14:47:40.404Z,7.35
2019-03-08T14:50:10.303Z,6.97
2019-03-08T14:52:40.112Z,5.87
2019-03-08T14:55:10.203Z,5.50
2019-03-08T14:57:38.979Z,5.72
2019-03-08T15:00:09.655Z,3.55
2019-03-08T15:02:38.451Z,9.23
2019-03-08T15:05:11.231Z,5.90
2019-03-08T15:07:41.154Z,11.80
2019-03-08T15:10:08.317Z,6.55
2019-03-08T15:12:48.313Z,6.42
2019-03-08T15:15:11.324Z,7.53
2019-03-08T15:17:38.592Z,8.13
2019-03-08T15:20:14.844Z,11.57
2019-03-08T15:22:39.420Z,6.75
2019-03-08T15:25:12.544Z,6.75
2019-03-08T15:27:40.174Z,4.75
2019-03-08T15:30:10.672Z,6.97
2019-03-08T15:32:39.417Z,8.58
2019-03-08T15:35:08.994Z,8.30
2019-03-08T15:37:44.334Z,8.83
2019-03-08T15:40:09.434Z,8.50
2019-03-08T15:42:38.257Z,7.55
2019-03-08T15:45:07.298Z,13.90
2019-03-08T15:47:37.385Z,9.53
2019-03-08T15:50:08.419Z,9.18
2019-03-08T15:52:37.928Z,9.10
2019-03-08T15:55:06.793Z,7.85
2019-03-08T15:57:35.550Z,8.63
2019-03-08T16:00:04.969Z,7.92
2019-03-08T16:02:34.282Z,15.28
2019-03-08T16:05:04.046Z,7.42
2019-03-08T16:07:32.810Z,12.93
2019-03-08T16:10:01.580Z,6.53
2019-03-08T16:12:31.902Z,9.70
2019-03-08T16:15:01.038Z,15.95
2019-03-08T16:17:30.980Z,6.30
2019-03-08T16:20:02.815Z,4.58
2019-03-08T16:22:30.226Z,10.10
2019-03-08T16:24:58.929Z,5.60
2019-03-08T16:27:27.782Z,7.20
2019-03-08T16:29:56.386Z,5.33
2019-03-08T16:32:34.509Z,5.67
2019-03-08T16:35:03.977Z,7.17
2019-03-08T16:37:49.028Z,6.08
2019-03-08T16:40:29.965Z,5.85
2019-03-08T16:43:20.781Z,6.03
2019-03-08T16:46:01.479Z,5.87
2019-03-08T16:48:47.809Z,5.50
2019-03-08T16:51:41.879Z,9.93
2019-03-08T16:54:38.447Z,9.63
2019-03-08T16:57:26.210Z,7.10
2019-03-08T17:00:26.135Z,9.93
2019-03-08T17:03:23.160Z,10.98
2019-03-08T17:06:14.216Z,4.90
2019-03-08T17:09:10.997Z,5.87
2019-03-08T17:11:56.259Z,6.30
2019-03-08T17:14:44.048Z,5.58
2019-03-08T17:17:24.450Z,8.23
2019-03-08T17:20:21.881Z,5.97
2019-03-08T17:22:57.978Z,3.80
2019-03-08T17:25:33.746Z,5.12
2019-03-08T17:28:14.536Z,4.03
2019-03-08T17:30:49.401Z,3.58
2019-03-08T17:33:37.156Z,6.10
2019-03-08T17:36:33.996Z,6.75
2019-03-08T17:39:30.639Z,4.10
2019-03-08T17:42:20.976Z,5.28
2019-03-08T17:45:14.509Z,4.97
2019-03-08T17:48:05.060Z,4.25
2019-03-08T17:50:56.457Z,5.33
2019-03-08T17:53:47.263Z,5.85
2019-03-08T17:56:27.471Z,5.37
2019-03-08T17:59:07.539Z,6.10
2019-03-08T18:01:57.247Z,6.45
2019-03-08T18:04:43.843Z,6.65
2019-03-08T18:07:28.308Z,8.15
2019-03-08T18:10:21.961Z,6.17
2019-03-08T18:13:08.831Z,11.30
2019-03-08T18:15:56.065Z,5.45
2019-03-08T18:18:49.908Z,7.85
2019-03-08T18:21:41.595Z,6.85
2019-03-08T18:24:28.124Z,8.18
2019-03-08T18:27:31.232Z,6.70
2019-03-08T18:30:17.978Z,6.12
2019-03-08T18:33:14.972Z,4.35
2019-03-08T18:35:53.662Z,10.18
2019-03-08T18:38:36.942Z,9.08
2019-03-08T18:41:11.110Z,7.03
2019-03-08T18:43:59.325Z,7.33
2019-03-08T18:46:45.924Z,5.45
2019-03-08T18:49:24.498Z,4.92
2019-03-08T18:52:12.410Z,8.68
2019-03-08T18:54:51.310Z,7.40
2019-03-08T18:57:29.170Z,8.60
2019-03-08T19:00:19.931Z,5.47
2019-03-08T19:03:10.900Z,7.67
2019-03-08T19:06:01.996Z,10.28
2019-03-08T19:08:53.055Z,6.80
2019-03-08T19:11:38.730Z,6.12
2019-03-08T19:14:44.682Z,10.90
2019-03-08T19:17:32.949Z,10.43
2019-03-08T19:20:26.530Z,8.13
2019-03-08T19:23:23.686Z,12.60
2019-03-08T19:26:02.915Z,5.42
2019-03-08T19:28:59.784Z,9.00
2019-03-08T19:31:50.327Z,9.45
2019-03-08T19:34:32.039Z,10.23
2019-03-08T19:37:28.844Z,8.40
2019-03-08T19:40:22.706Z,11.60
2019-03-08T19:43:19.846Z,7.47
2019-03-08T19:46:11.680Z,11.30
2019-03-08T19:49:04.822Z,5.85
2019-03-08T19:51:41.104Z,5.97
2019-03-08T19:54:20.924Z,11.68
2019-03-08T19:57:07.301Z,11.80
2019-03-08T19:59:53.631Z,9.65
2019-03-08T20:02:53.597Z,8.55
2019-03-08T20:05:33.620Z,11.05
2019-03-08T20:08:16.960Z,7.53
2019-03-08T20:11:23.023Z,11.75
2019-03-08T20:14:09.603Z,8.18
2019-03-08T20:16:56.223Z,9.43
2019-03-08T20:19:38.487Z,12.43
2019-03-08T20:22:14.568Z,14.30
2019-03-08T20:25:02.482Z,8.10
2019-03-08T20:27:49.255Z,9.55
2019-03-08T20:30:38.511Z,11.10
2019-03-08T20:33:24.968Z,7.58
2019-03-08T20:36:11.339Z,12.60
2019-03-08T20:39:05.248Z,5.12
2019-03-08T20:41:55.830Z,12.58
2019-03-08T20:44:49.846Z,12.23
2019-03-08T20:47:22.114Z,8.75
2019-03-08T20:49:50.951Z,11.30
2019-03-08T20:52:19.826Z,7.67
2019-03-08T20:54:48.590Z,15.60
2019-03-08T20:57:17.395Z,11.97
2019-03-08T20:59:46.135Z,9.88
2019-03-08T21:02:14.950Z,9.48
2019-03-08T21:04:43.785Z,9.68
2019-03-08T21:07:12.495Z,10.48
2019-03-08T21:09:41.343Z,7.87
2019-03-08T21:12:11.184Z,11.95
2019-03-08T21:14:39.958Z,6.72
2019-03-08T21:17:08.721Z,10.98
2019-03-08T21:19:37.724Z,12.65
2019-03-08T21:22:06.447Z,5.78
2019-03-08T21:24:35.200Z,9.73
2019-03-08T21:27:03.918Z,7.05
2019-03-08T21:29:32.756Z,8.88
2019-03-08T21:32:01.500Z,9.95
2019-03-08T21:34:30.375Z,8.98
2019-03-08T21:36:59.201Z,7.83
2019-03-08T21:39:27.930Z,6.45
2019-03-08T21:41:56.796Z,13.35
2019-03-08T21:44:25.603Z,14.03
2019-03-08T21:46:54.317Z,11.80
2019-03-08T21:49:23.058Z,11.25
2019-03-08T21:51:52.331Z,12.85
2019-03-08T21:54:21.177Z,6.83
2019-03-08T21:56:49.900Z,5.72
2019-03-08T21:59:18.985Z,8.30
2019-03-08T22:01:47.752Z,12.37
2019-03-08T22:04:47.829Z,9.60
2019-03-08T22:07:16.777Z,9.48
2019-03-08T22:09:53.649Z,10.70
2019-03-08T22:12:22.418Z,11.43
2019-03-08T22:14:51.176Z,9.58
2019-03-08T22:17:20.984Z,9.40
2019-03-08T22:19:49.799Z,7.17
2019-03-08T22:22:18.497Z,6.72
2019-03-08T22:24:48.307Z,7.90
2019-03-08T22:27:17.102Z,9.20
2019-03-08T22:29:45.794Z,7.90
2019-03-08T22:32:14.891Z,8.38
2019-03-08T22:34:43.661Z,10.70
2019-03-08T22:37:12.470Z,11.28
2019-03-08T22:39:41.208Z,8.00
2019-03-08T22:42:09.927Z,10.93
2019-03-08T22:44:38.915Z,9.40
2019-03-08T22:47:07.620Z,8.48
2019-03-08T22:49:36.365Z,11.60
2019-03-08T22:52:05.079Z,9.30
2019-03-08T22:54:33.887Z,11.48
2019-03-08T22:57:02.586Z,11.83
2019-03-08T22:59:31.298Z,11.93
2019-03-08T23:02:04.193Z,9.53
2019-03-08T23:04:32.947Z,10.53
2019-03-08T23:07:01.719Z,8.33
2019-03-08T23:09:30.461Z,7.90
2019-03-08T23:11:59.210Z,10.53
2019-03-08T23:14:27.870Z,8.50
2019-03-08T23:16:56.637Z,6.22
2019-03-08T23:19:25.354Z,8.25
2019-03-08T23:21:54.036Z,10.95
2019-03-08T23:24:22.990Z,9.60
2019-03-08T23:27:09.530Z,6.12
2019-03-08T23:29:42.558Z,7.42
2019-03-08T23:32:15.993Z,9.30
2019-03-08T23:34:44.734Z,10.58
2019-03-08T23:37:13.452Z,11.65
2019-03-08T23:39:42.268Z,6.12
2019-03-08T23:42:12.058Z,6.47
2019-03-08T23:44:40.892Z,7.62
2019-03-08T23:47:09.695Z,9.18
2019-03-08T23:49:38.498Z,8.85
2019-03-08T23:52:07.246Z,6.97
2019-03-08T23:54:35.993Z,8.48
2019-03-08T23:57:04.785Z,8.35
2019-03-08T23:59:33.518Z,8.45
